sensor_id;sensor_type;location;lat;lon;timestamp;P1;durP1;ratioP1;P2;durP2;ratioP2
61675;SDS011;47574;52.090;5.244;2023-11-19T00:01:07;12.1;;;4.1;;
61675;SDS011;47574;52.090;5.244;2023-11-19T00:02:43;12.3;;;4.1;;
61675;SDS011;47574;52.090;5.244;2023-11-19T00:04:19;13.3;;;4.0;;
61675;SDS011;47574;52.090;5.244;2023-11-19T00:07:32;9.5;;;3.8;;
61675;SDS011;47574;52.090;5.244;2023-11-19T00:09:08;11.3;;;3.7;;
61675;SDS011;47574;52.090;5.244;2023-11-19T00:10:44;12.3;;;3.9;;
61675;SDS011;47574;52.090;5.244;2023-11-19T00:12:20;11.4;;;3.5;;
61675;SDS011;47574;52.090;5.244;2023-11-19T00:15:32;12.7;;;4.1;;
61675;SDS011;47574;52.090;5.244;2023-11-19T00:17:08;11.7;;;3.5;;
61675;SDS011;47574;52.090;5.244;2023-11-19T00:18:44;13.5;;;3.5;;
61675;SDS011;47574;52.090;5.244;2023-11-19T00:21:56;16.0;;;3.9;;
61675;SDS011;47574;52.090;5.244;2023-11-19T00:23:33;16.11;;;4.3;;
61675;SDS011;47574;52.090;5.244;2023-11-19T00:25:09;15.3;;;4.2;;
61675;SDS011;47574;52.090;5.244;2023-11-19T00:28:22;14.0;;;3.5;;
61675;SDS011;47574;52.090;5.244;2023-11-19T00:29:59;16.2;;;3.9;;
61675;SDS011;47574;52.090;5.244;2023-11-19T00:31:36;16.2;;;3.9;;
61675;SDS011;47574;52.090;5.244;2023-11-19T00:34:48;15.5;;;3.9;;
61675;SDS011;47574;52.090;5.244;2023-11-19T00:36:24;20.7;;;4.41;;
61675;SDS011;47574;52.090;5.244;2023-11-19T00:38:00;17.91;;;4.0;;
61675;SDS011;47574;52.090;5.244;2023-11-19T00:39:36;19.41;;;3.5;;
61675;SDS011;47574;52.090;5.244;2023-11-19T00:42:51;18.7;;;4.3;;
61675;SDS011;47574;52.090;5.244;2023-11-19T00:44:27;16.61;;;4.0;;
61675;SDS011;47574;52.090;5.244;2023-11-19T00:46:06;19.3;;;4.5;;
61675;SDS011;47574;52.090;5.244;2023-11-19T00:49:19;22.1;;;4.61;;
61675;SDS011;47574;52.090;5.244;2023-11-19T00:50:55;22.0;;;4.41;;
61675;SDS011;47574;52.090;5.244;2023-11-19T00:52:31;21.8;;;4.41;;
61675;SDS011;47574;52.090;5.244;2023-11-19T00:55:44;23.2;;;5.0;;
61675;SDS011;47574;52.090;5.244;2023-11-19T00:57:21;23.0;;;4.61;;
61675;SDS011;47574;52.090;5.244;2023-11-19T00:58:57;24.1;;;4.2;;
61675;SDS011;47574;52.090;5.244;2023-11-19T01:00:33;21.8;;;4.3;;
61675;SDS011;47574;52.090;5.244;2023-11-19T01:03:45;24.4;;;4.41;;
61675;SDS011;47574;52.090;5.244;2023-11-19T01:05:21;26.6;;;5.3;;
61675;SDS011;47574;52.090;5.244;2023-11-19T01:06:57;20.0;;;4.3;;
61675;SDS011;47574;52.090;5.244;2023-11-19T01:10:09;27.5;;;5.9;;
61675;SDS011;47574;52.090;5.244;2023-11-19T01:11:46;23.9;;;5.11;;
61675;SDS011;47574;52.090;5.244;2023-11-19T01:13:22;21.0;;;4.91;;
61675;SDS011;47574;52.090;5.244;2023-11-19T01:16:34;23.3;;;5.0;;
61675;SDS011;47574;52.090;5.244;2023-11-19T01:18:10;29.9;;;5.6;;
61675;SDS011;47574;52.090;5.244;2023-11-19T01:19:47;22.9;;;4.91;;
61675;SDS011;47574;52.090;5.244;2023-11-19T01:21:23;30.0;;;5.6;;
61675;SDS011;47574;52.090;5.244;2023-11-19T01:24:36;24.7;;;5.4;;
61675;SDS011;47574;52.090;5.244;2023-11-19T01:26:13;30.5;;;4.8;;
61675;SDS011;47574;52.090;5.244;2023-11-19T01:27:49;26.6;;;5.4;;
61675;SDS011;47574;52.090;5.244;2023-11-19T01:31:01;24.1;;;4.7;;
61675;SDS011;47574;52.090;5.244;2023-11-19T01:32:37;30.8;;;5.8;;
61675;SDS011;47574;52.090;5.244;2023-11-19T01:34:13;29.4;;;6.0;;
61675;SDS011;47574;52.090;5.244;2023-11-19T01:37:26;24.0;;;5.4;;
61675;SDS011;47574;52.090;5.244;2023-11-19T01:39:02;30.5;;;6.5;;
61675;SDS011;47574;52.090;5.244;2023-11-19T01:40:38;28.3;;;5.4;;
61675;SDS011;47574;52.090;5.244;2023-11-19T01:43:51;29.2;;;5.7;;
61675;SDS011;47574;52.090;5.244;2023-11-19T01:45:28;33.0;;;5.8;;
61675;SDS011;47574;52.090;5.244;2023-11-19T01:47:06;28.0;;;5.8;;
61675;SDS011;47574;52.090;5.244;2023-11-19T01:48:44;27.5;;;5.7;;
61675;SDS011;47574;52.090;5.244;2023-11-19T01:52:00;28.1;;;6.5;;
61675;SDS011;47574;52.090;5.244;2023-11-19T01:53:36;31.6;;;6.4;;
61675;SDS011;47574;52.090;5.244;2023-11-19T01:55:15;29.5;;;6.2;;
61675;SDS011;47574;52.090;5.244;2023-11-19T01:58:30;29.5;;;6.2;;
61675;SDS011;47574;52.090;5.244;2023-11-19T02:00:07;30.0;;;6.2;;
61675;SDS011;47574;52.090;5.244;2023-11-19T02:01:46;32.0;;;6.4;;
61675;SDS011;47574;52.090;5.244;2023-11-19T02:03:22;32.0;;;6.8;;
61675;SDS011;47574;52.090;5.244;2023-11-19T02:06:36;31.1;;;6.4;;
61675;SDS011;47574;52.090;5.244;2023-11-19T02:08:15;32.1;;;6.9;;
61675;SDS011;47574;52.090;5.244;2023-11-19T02:09:51;34.6;;;7.1;;
61675;SDS011;47574;52.090;5.244;2023-11-19T02:13:05;28.4;;;5.8;;
61675;SDS011;47574;52.090;5.244;2023-11-19T02:14:41;37.21;;;6.9;;
61675;SDS011;47574;52.090;5.244;2023-11-19T02:16:17;38.4;;;7.6;;
61675;SDS011;47574;52.090;5.244;2023-11-19T02:17:53;33.6;;;7.0;;
61675;SDS011;47574;52.090;5.244;2023-11-19T02:21:05;32.4;;;6.4;;
61675;SDS011;47574;52.090;5.244;2023-11-19T02:22:41;32.4;;;6.5;;
61675;SDS011;47574;52.090;5.244;2023-11-19T02:24:19;37.5;;;6.9;;
61675;SDS011;47574;52.090;5.244;2023-11-19T02:27:46;34.9;;;6.8;;
61675;SDS011;47574;52.090;5.244;2023-11-19T02:29:28;32.8;;;7.1;;
61675;SDS011;47574;52.090;5.244;2023-11-19T02:31:04;33.21;;;7.1;;
61675;SDS011;47574;52.090;5.244;2023-11-19T02:32:41;49.5;;;7.8;;
61675;SDS011;47574;52.090;5.244;2023-11-19T02:35:54;36.21;;;7.3;;
61675;SDS011;47574;52.090;5.244;2023-11-19T02:37:30;40.5;;;7.4;;
61675;SDS011;47574;52.090;5.244;2023-11-19T02:39:07;37.5;;;7.6;;
61675;SDS011;47574;52.090;5.244;2023-11-19T02:42:21;36.4;;;7.8;;
61675;SDS011;47574;52.090;5.244;2023-11-19T02:43:57;42.9;;;8.31;;
61675;SDS011;47574;52.090;5.244;2023-11-19T02:45:33;40.1;;;8.0;;
61675;SDS011;47574;52.090;5.244;2023-11-19T02:47:10;43.3;;;8.0;;
61675;SDS011;47574;52.090;5.244;2023-11-19T02:50:23;37.81;;;8.1;;
61675;SDS011;47574;52.090;5.244;2023-11-19T02:52:01;33.9;;;7.7;;
61675;SDS011;47574;52.090;5.244;2023-11-19T02:53:37;37.9;;;7.4;;
61675;SDS011;47574;52.090;5.244;2023-11-19T02:56:51;41.9;;;8.5;;
61675;SDS011;47574;52.090;5.244;2023-11-19T02:58:27;42.0;;;7.6;;
61675;SDS011;47574;52.090;5.244;2023-11-19T03:00:05;38.4;;;7.9;;
61675;SDS011;47574;52.090;5.244;2023-11-19T03:03:19;39.4;;;7.6;;
61675;SDS011;47574;52.090;5.244;2023-11-19T03:04:55;37.81;;;7.9;;
61675;SDS011;47574;52.090;5.244;2023-11-19T03:06:31;35.5;;;7.6;;
61675;SDS011;47574;52.090;5.244;2023-11-19T03:08:07;43.3;;;8.1;;
61675;SDS011;47574;52.090;5.244;2023-11-19T03:11:20;38.71;;;7.5;;
61675;SDS011;47574;52.090;5.244;2023-11-19T03:12:56;38.71;;;7.5;;
61675;SDS011;47574;52.090;5.244;2023-11-19T03:14:33;39.5;;;8.31;;
61675;SDS011;47574;52.090;5.244;2023-11-19T03:17:45;39.31;;;7.7;;
61675;SDS011;47574;52.090;5.244;2023-11-19T03:19:21;40.6;;;8.31;;
61675;SDS011;47574;52.090;5.244;2023-11-19T03:20:58;42.9;;;8.71;;
61675;SDS011;47574;52.090;5.244;2023-11-19T03:24:13;42.5;;;8.6;;
61675;SDS011;47574;52.090;5.244;2023-11-19T03:25:49;37.6;;;7.6;;
61675;SDS011;47574;52.090;5.244;2023-11-19T03:27:26;48.4;;;8.71;;
61675;SDS011;47574;52.090;5.244;2023-11-19T03:29:02;44.5;;;8.2;;
61675;SDS011;47574;52.090;5.244;2023-11-19T03:32:14;39.21;;;8.6;;
61675;SDS011;47574;52.090;5.244;2023-11-19T03:33:50;38.4;;;7.9;;
61675;SDS011;47574;52.090;5.244;2023-11-19T03:35:26;39.4;;;8.0;;
61675;SDS011;47574;52.090;5.244;2023-11-19T03:38:39;42.8;;;8.81;;
61675;SDS011;47574;52.090;5.244;2023-11-19T03:40:15;42.8;;;8.81;;
61675;SDS011;47574;52.090;5.244;2023-11-19T03:41:52;41.9;;;8.5;;
61675;SDS011;47574;52.090;5.244;2023-11-19T03:45:07;40.5;;;8.0;;
61675;SDS011;47574;52.090;5.244;2023-11-19T03:46:44;40.1;;;7.7;;
61675;SDS011;47574;52.090;5.244;2023-11-19T03:48:20;39.71;;;7.9;;
61675;SDS011;47574;52.090;5.244;2023-11-19T03:49:56;47.1;;;8.2;;
61675;SDS011;47574;52.090;5.244;2023-11-19T03:53:08;40.0;;;7.7;;
61675;SDS011;47574;52.090;5.244;2023-11-19T03:54:44;43.5;;;8.71;;
61675;SDS011;47574;52.090;5.244;2023-11-19T03:56:21;45.4;;;9.4;;
61675;SDS011;47574;52.090;5.244;2023-11-19T03:59:34;36.0;;;7.7;;
61675;SDS011;47574;52.090;5.244;2023-11-19T04:01:11;41.2;;;8.5;;
61675;SDS011;47574;52.090;5.244;2023-11-19T04:02:48;40.1;;;8.5;;
61675;SDS011;47574;52.090;5.244;2023-11-19T04:06:00;36.0;;;7.8;;
61675;SDS011;47574;52.090;5.244;2023-11-19T04:07:36;42.6;;;8.31;;
61675;SDS011;47574;52.090;5.244;2023-11-19T04:09:15;43.2;;;8.81;;
61675;SDS011;47574;52.090;5.244;2023-11-19T04:10:52;45.6;;;9.0;;
61675;SDS011;47574;52.090;5.244;2023-11-19T04:14:04;43.3;;;8.31;;
61675;SDS011;47574;52.090;5.244;2023-11-19T04:15:40;40.71;;;8.4;;
61675;SDS011;47574;52.090;5.244;2023-11-19T04:17:17;39.9;;;8.31;;
61675;SDS011;47574;52.090;5.244;2023-11-19T04:20:30;44.0;;;8.5;;
61675;SDS011;47574;52.090;5.244;2023-11-19T04:22:06;37.21;;;7.7;;
61675;SDS011;47574;52.090;5.244;2023-11-19T04:23:42;43.3;;;8.2;;
61675;SDS011;47574;52.090;5.244;2023-11-19T04:26:54;37.71;;;8.4;;
61675;SDS011;47574;52.090;5.244;2023-11-19T04:28:30;42.5;;;8.0;;
61675;SDS011;47574;52.090;5.244;2023-11-19T04:30:07;38.5;;;8.31;;
61675;SDS011;47574;52.090;5.244;2023-11-19T04:33:20;43.7;;;8.9;;
61675;SDS011;47574;52.090;5.244;2023-11-19T04:34:56;43.7;;;8.9;;
61675;SDS011;47574;52.090;5.244;2023-11-19T04:36:32;40.4;;;8.9;;
61675;SDS011;47574;52.090;5.244;2023-11-19T04:38:08;47.1;;;9.1;;
61675;SDS011;47574;52.090;5.244;2023-11-19T04:41:20;47.3;;;9.1;;
61675;SDS011;47574;52.090;5.244;2023-11-19T04:42:56;40.71;;;8.6;;
61675;SDS011;47574;52.090;5.244;2023-11-19T04:44:32;44.4;;;9.0;;
61675;SDS011;47574;52.090;5.244;2023-11-19T04:47:46;40.0;;;8.5;;
61675;SDS011;47574;52.090;5.244;2023-11-19T04:49:22;40.9;;;9.0;;
61675;SDS011;47574;52.090;5.244;2023-11-19T04:50:58;43.5;;;9.6;;
61675;SDS011;47574;52.090;5.244;2023-11-19T04:54:13;41.4;;;8.81;;
61675;SDS011;47574;52.090;5.244;2023-11-19T04:55:50;37.9;;;8.1;;
61675;SDS011;47574;52.090;5.244;2023-11-19T04:57:26;41.5;;;8.6;;
61675;SDS011;47574;52.090;5.244;2023-11-19T04:59:02;43.3;;;8.6;;
61675;SDS011;47574;52.090;5.244;2023-11-19T05:02:15;38.4;;;8.5;;
61675;SDS011;47574;52.090;5.244;2023-11-19T05:03:51;43.7;;;8.4;;
61675;SDS011;47574;52.090;5.244;2023-11-19T05:05:28;42.4;;;8.2;;
61675;SDS011;47574;52.090;5.244;2023-11-19T05:08:40;46.5;;;8.31;;
61675;SDS011;47574;52.090;5.244;2023-11-19T05:10:16;42.4;;;8.81;;
61675;SDS011;47574;52.090;5.244;2023-11-19T05:11:52;45.3;;;8.6;;
61675;SDS011;47574;52.090;5.244;2023-11-19T05:15:05;40.81;;;8.81;;
61675;SDS011;47574;52.090;5.244;2023-11-19T05:16:41;42.8;;;8.31;;
61675;SDS011;47574;52.090;5.244;2023-11-19T05:18:17;42.2;;;8.6;;
61675;SDS011;47574;52.090;5.244;2023-11-19T05:19:54;44.5;;;9.0;;
61675;SDS011;47574;52.090;5.244;2023-11-19T05:23:06;42.0;;;8.31;;
61675;SDS011;47574;52.090;5.244;2023-11-19T05:24:42;43.0;;;8.6;;
61675;SDS011;47574;52.090;5.244;2023-11-19T05:26:18;46.3;;;9.0;;
61675;SDS011;47574;52.090;5.244;2023-11-19T05:29:31;45.5;;;9.0;;
61675;SDS011;47574;52.090;5.244;2023-11-19T05:31:07;46.4;;;9.1;;
61675;SDS011;47574;52.090;5.244;2023-11-19T05:32:43;47.1;;;8.71;;
61675;SDS011;47574;52.090;5.244;2023-11-19T05:35:55;47.1;;;9.6;;
61675;SDS011;47574;52.090;5.244;2023-11-19T05:37:32;41.8;;;8.9;;
61675;SDS011;47574;52.090;5.244;2023-11-19T05:39:08;34.1;;;7.2;;
61675;SDS011;47574;52.090;5.244;2023-11-19T05:42:20;50.6;;;9.0;;
61675;SDS011;47574;52.090;5.244;2023-11-19T05:43:56;37.31;;;7.9;;
61675;SDS011;47574;52.090;5.244;2023-11-19T05:45:32;40.4;;;8.71;;
61675;SDS011;47574;52.090;5.244;2023-11-19T05:47:08;42.3;;;8.5;;
61675;SDS011;47574;52.090;5.244;2023-11-19T05:50:20;47.2;;;8.71;;
61675;SDS011;47574;52.090;5.244;2023-11-19T05:51:56;50.3;;;9.6;;
61675;SDS011;47574;52.090;5.244;2023-11-19T05:53:33;46.5;;;9.1;;
61675;SDS011;47574;52.090;5.244;2023-11-19T05:56:47;45.5;;;8.81;;
61675;SDS011;47574;52.090;5.244;2023-11-19T05:58:24;42.3;;;9.21;;
61675;SDS011;47574;52.090;5.244;2023-11-19T06:00:01;38.5;;;8.6;;
61675;SDS011;47574;52.090;5.244;2023-11-19T06:03:14;45.3;;;9.21;;
61675;SDS011;47574;52.090;5.244;2023-11-19T06:04:50;41.8;;;8.1;;
61675;SDS011;47574;52.090;5.244;2023-11-19T06:06:26;40.5;;;8.4;;
61675;SDS011;47574;52.090;5.244;2023-11-19T06:08:05;40.21;;;8.5;;
61675;SDS011;47574;52.090;5.244;2023-11-19T06:11:17;42.2;;;8.31;;
61675;SDS011;47574;52.090;5.244;2023-11-19T06:12:53;41.3;;;8.5;;
61675;SDS011;47574;52.090;5.244;2023-11-19T06:14:29;44.7;;;8.5;;
61675;SDS011;47574;52.090;5.244;2023-11-19T06:19:19;45.8;;;9.21;;
61675;SDS011;47574;52.090;5.244;2023-11-19T06:20:55;47.5;;;8.71;;
61675;SDS011;47574;52.090;5.244;2023-11-19T06:24:07;46.2;;;9.0;;
61675;SDS011;47574;52.090;5.244;2023-11-19T06:25:44;47.9;;;8.9;;
61675;SDS011;47574;52.090;5.244;2023-11-19T06:27:21;43.9;;;8.81;;
61675;SDS011;47574;52.090;5.244;2023-11-19T06:28:56;47.9;;;8.1;;
61675;SDS011;47574;52.090;5.244;2023-11-19T06:32:09;45.9;;;9.21;;
61675;SDS011;47574;52.090;5.244;2023-11-19T06:33:46;40.9;;;9.71;;
61675;SDS011;47574;52.090;5.244;2023-11-19T06:35:22;43.1;;;8.81;;
61675;SDS011;47574;52.090;5.244;2023-11-19T06:38:34;45.5;;;8.4;;
61675;SDS011;47574;52.090;5.244;2023-11-19T06:40:10;45.9;;;8.71;;
61675;SDS011;47574;52.090;5.244;2023-11-19T06:41:47;45.0;;;8.9;;
61675;SDS011;47574;52.090;5.244;2023-11-19T06:45:00;44.2;;;9.4;;
61675;SDS011;47574;52.090;5.244;2023-11-19T06:46:37;50.5;;;9.9;;
61675;SDS011;47574;52.090;5.244;2023-11-19T06:48:14;44.3;;;8.5;;
61675;SDS011;47574;52.090;5.244;2023-11-19T06:49:50;40.31;;;8.2;;
61675;SDS011;47574;52.090;5.244;2023-11-19T06:53:03;42.9;;;8.2;;
61675;SDS011;47574;52.090;5.244;2023-11-19T06:54:39;37.31;;;7.8;;
61675;SDS011;47574;52.090;5.244;2023-11-19T06:56:18;42.4;;;7.8;;
61675;SDS011;47574;52.090;5.244;2023-11-19T06:59:35;41.4;;;7.8;;
61675;SDS011;47574;52.090;5.244;2023-11-19T07:01:13;41.4;;;7.8;;
61675;SDS011;47574;52.090;5.244;2023-11-19T07:02:49;38.4;;;8.9;;
61675;SDS011;47574;52.090;5.244;2023-11-19T07:06:02;43.0;;;8.1;;
61675;SDS011;47574;52.090;5.244;2023-11-19T07:07:39;40.1;;;7.8;;
61675;SDS011;47574;52.090;5.244;2023-11-19T07:09:15;44.7;;;8.31;;
61675;SDS011;47574;52.090;5.244;2023-11-19T07:10:51;46.2;;;9.1;;
61675;SDS011;47574;52.090;5.244;2023-11-19T07:14:04;43.4;;;8.5;;
61675;SDS011;47574;52.090;5.244;2023-11-19T07:15:42;43.6;;;8.31;;
61675;SDS011;47574;52.090;5.244;2023-11-19T07:17:18;42.4;;;8.6;;
61675;SDS011;47574;52.090;5.244;2023-11-19T07:20:32;39.71;;;8.5;;
61675;SDS011;47574;52.090;5.244;2023-11-19T07:22:08;44.1;;;8.2;;
61675;SDS011;47574;52.090;5.244;2023-11-19T07:23:44;42.6;;;8.5;;
61675;SDS011;47574;52.090;5.244;2023-11-19T07:26:57;44.3;;;8.6;;
61675;SDS011;47574;52.090;5.244;2023-11-19T07:28:33;43.1;;;8.5;;
61675;SDS011;47574;52.090;5.244;2023-11-19T07:30:10;45.9;;;9.1;;
61675;SDS011;47574;52.090;5.244;2023-11-19T07:31:48;37.5;;;7.7;;
61675;SDS011;47574;52.090;5.244;2023-11-19T07:35:00;40.0;;;7.9;;
61675;SDS011;47574;52.090;5.244;2023-11-19T07:36:36;38.31;;;8.5;;
61675;SDS011;47574;52.090;5.244;2023-11-19T07:38:13;46.4;;;8.71;;
61675;SDS011;47574;52.090;5.244;2023-11-19T07:41:25;44.7;;;8.71;;
61675;SDS011;47574;52.090;5.244;2023-11-19T07:43:01;41.1;;;8.31;;
61675;SDS011;47574;52.090;5.244;2023-11-19T07:44:37;41.4;;;8.4;;
61675;SDS011;47574;52.090;5.244;2023-11-19T07:47:49;45.3;;;8.31;;
61675;SDS011;47574;52.090;5.244;2023-11-19T07:49:27;42.1;;;8.71;;
61675;SDS011;47574;52.090;5.244;2023-11-19T07:51:03;41.3;;;8.31;;
61675;SDS011;47574;52.090;5.244;2023-11-19T07:52:39;42.2;;;8.71;;
61675;SDS011;47574;52.090;5.244;2023-11-19T07:55:52;39.9;;;8.2;;
61675;SDS011;47574;52.090;5.244;2023-11-19T07:57:28;42.6;;;7.9;;
61675;SDS011;47574;52.090;5.244;2023-11-19T07:59:04;45.9;;;8.81;;
61675;SDS011;47574;52.090;5.244;2023-11-19T08:02:16;45.8;;;9.0;;
61675;SDS011;47574;52.090;5.244;2023-11-19T08:03:53;41.5;;;8.2;;
61675;SDS011;47574;52.090;5.244;2023-11-19T08:05:30;41.0;;;8.0;;
61675;SDS011;47574;52.090;5.244;2023-11-19T08:10:20;41.7;;;8.4;;
61675;SDS011;47574;52.090;5.244;2023-11-19T08:11:57;39.21;;;7.9;;
61675;SDS011;47574;52.090;5.244;2023-11-19T08:13:33;44.0;;;9.31;;
61675;SDS011;47574;52.090;5.244;2023-11-19T08:16:47;46.2;;;8.6;;
61675;SDS011;47574;52.090;5.244;2023-11-19T08:18:23;51.1;;;9.81;;
61675;SDS011;47574;52.090;5.244;2023-11-19T08:19:59;42.7;;;8.5;;
61675;SDS011;47574;52.090;5.244;2023-11-19T08:23:11;38.5;;;8.1;;
61675;SDS011;47574;52.090;5.244;2023-11-19T08:24:47;41.4;;;7.9;;
61675;SDS011;47574;52.090;5.244;2023-11-19T08:29:36;45.4;;;8.1;;
61675;SDS011;47574;52.090;5.244;2023-11-19T08:31:13;37.4;;;7.9;;
61675;SDS011;47574;52.090;5.244;2023-11-19T08:32:49;42.7;;;8.6;;
61675;SDS011;47574;52.090;5.244;2023-11-19T08:36:03;42.4;;;8.2;;
61675;SDS011;47574;52.090;5.244;2023-11-19T08:39:15;40.5;;;8.31;;
61675;SDS011;47574;52.090;5.244;2023-11-19T08:40:51;35.6;;;7.6;;
61675;SDS011;47574;52.090;5.244;2023-11-19T08:44:04;42.7;;;8.9;;
61675;SDS011;47574;52.090;5.244;2023-11-19T08:45:40;40.71;;;7.7;;
61675;SDS011;47574;52.090;5.244;2023-11-19T08:47:16;40.9;;;8.2;;
61675;SDS011;47574;52.090;5.244;2023-11-19T08:50:30;34.1;;;7.8;;
61675;SDS011;47574;52.090;5.244;2023-11-19T08:52:08;43.9;;;8.31;;
61675;SDS011;47574;52.090;5.244;2023-11-19T08:53:45;40.6;;;8.2;;
61675;SDS011;47574;52.090;5.244;2023-11-19T08:56:57;40.5;;;8.1;;
61675;SDS011;47574;52.090;5.244;2023-11-19T08:58:33;41.9;;;7.4;;
61675;SDS011;47574;52.090;5.244;2023-11-19T09:00:10;40.81;;;8.31;;
61675;SDS011;47574;52.090;5.244;2023-11-19T09:01:48;38.71;;;8.1;;
61675;SDS011;47574;52.090;5.244;2023-11-19T09:05:01;37.9;;;8.2;;
61675;SDS011;47574;52.090;5.244;2023-11-19T09:06:38;38.1;;;8.0;;
61675;SDS011;47574;52.090;5.244;2023-11-19T09:08:15;37.21;;;7.7;;
61675;SDS011;47574;52.090;5.244;2023-11-19T09:11:28;37.4;;;8.31;;
61675;SDS011;47574;52.090;5.244;2023-11-19T09:13:05;39.4;;;8.2;;
61675;SDS011;47574;52.090;5.244;2023-11-19T09:14:41;36.71;;;7.8;;
61675;SDS011;47574;52.090;5.244;2023-11-19T09:16:17;40.9;;;8.4;;
61675;SDS011;47574;52.090;5.244;2023-11-19T09:19:32;42.1;;;8.81;;
61675;SDS011;47574;52.090;5.244;2023-11-19T09:21:10;41.1;;;8.6;;
61675;SDS011;47574;52.090;5.244;2023-11-19T09:22:46;45.3;;;8.5;;
61675;SDS011;47574;52.090;5.244;2023-11-19T09:25:58;34.81;;;7.0;;
61675;SDS011;47574;52.090;5.244;2023-11-19T09:27:34;34.4;;;7.8;;
61675;SDS011;47574;52.090;5.244;2023-11-19T09:29:11;34.71;;;7.6;;
61675;SDS011;47574;52.090;5.244;2023-11-19T09:32:26;35.9;;;7.7;;
61675;SDS011;47574;52.090;5.244;2023-11-19T09:34:03;39.31;;;7.7;;
61675;SDS011;47574;52.090;5.244;2023-11-19T09:35:39;35.4;;;7.2;;
61675;SDS011;47574;52.090;5.244;2023-11-19T09:37:15;39.4;;;8.31;;
61675;SDS011;47574;52.090;5.244;2023-11-19T09:40:27;34.9;;;7.8;;
61675;SDS011;47574;52.090;5.244;2023-11-19T09:42:04;44.3;;;8.2;;
61675;SDS011;47574;52.090;5.244;2023-11-19T09:43:41;38.0;;;8.6;;
61675;SDS011;47574;52.090;5.244;2023-11-19T09:46:57;36.5;;;7.6;;
61675;SDS011;47574;52.090;5.244;2023-11-19T09:48:35;37.81;;;7.6;;
61675;SDS011;47574;52.090;5.244;2023-11-19T09:50:14;37.6;;;8.2;;
61675;SDS011;47574;52.090;5.244;2023-11-19T09:51:52;42.3;;;8.2;;
61675;SDS011;47574;52.090;5.244;2023-11-19T09:55:08;40.6;;;7.9;;
61675;SDS011;47574;52.090;5.244;2023-11-19T09:56:44;35.6;;;7.9;;
61675;SDS011;47574;52.090;5.244;2023-11-19T09:58:22;39.9;;;7.6;;
61675;SDS011;47574;52.090;5.244;2023-11-19T10:01:35;37.5;;;7.5;;
61675;SDS011;47574;52.090;5.244;2023-11-19T10:03:13;37.5;;;8.0;;
61675;SDS011;47574;52.090;5.244;2023-11-19T10:04:49;41.8;;;8.4;;
61675;SDS011;47574;52.090;5.244;2023-11-19T10:08:05;43.2;;;8.31;;
61675;SDS011;47574;52.090;5.244;2023-11-19T10:09:42;40.1;;;7.7;;
61675;SDS011;47574;52.090;5.244;2023-11-19T10:11:18;39.81;;;8.0;;
61675;SDS011;47574;52.090;5.244;2023-11-19T10:12:54;41.5;;;8.2;;
61675;SDS011;47574;52.090;5.244;2023-11-19T10:16:09;43.9;;;8.71;;
61675;SDS011;47574;52.090;5.244;2023-11-19T10:17:48;36.5;;;7.9;;
61675;SDS011;47574;52.090;5.244;2023-11-19T10:19:24;33.8;;;7.2;;
61675;SDS011;47574;52.090;5.244;2023-11-19T10:22:36;40.4;;;8.31;;
61675;SDS011;47574;52.090;5.244;2023-11-19T10:24:13;32.71;;;7.2;;
61675;SDS011;47574;52.090;5.244;2023-11-19T10:25:50;31.9;;;7.7;;
61675;SDS011;47574;52.090;5.244;2023-11-19T10:27:29;31.9;;;7.7;;
61675;SDS011;47574;52.090;5.244;2023-11-19T10:30:42;33.0;;;7.0;;
61675;SDS011;47574;52.090;5.244;2023-11-19T10:32:18;40.4;;;7.8;;
61675;SDS011;47574;52.090;5.244;2023-11-19T10:33:54;34.9;;;7.3;;
61675;SDS011;47574;52.090;5.244;2023-11-19T10:37:09;40.1;;;7.0;;
61675;SDS011;47574;52.090;5.244;2023-11-19T10:39:03;36.4;;;7.2;;
61675;SDS011;47574;52.090;5.244;2023-11-19T10:40:39;36.81;;;7.1;;
61675;SDS011;47574;52.090;5.244;2023-11-19T10:42:16;32.4;;;6.7;;
61675;SDS011;47574;52.090;5.244;2023-11-19T10:45:28;37.9;;;8.31;;
61675;SDS011;47574;52.090;5.244;2023-11-19T10:47:05;32.0;;;7.1;;
61675;SDS011;47574;52.090;5.244;2023-11-19T10:48:43;45.0;;;8.31;;
61675;SDS011;47574;52.090;5.244;2023-11-19T10:51:56;38.71;;;7.0;;
61675;SDS011;47574;52.090;5.244;2023-11-19T10:53:35;36.5;;;7.5;;
61675;SDS011;47574;52.090;5.244;2023-11-19T10:55:13;33.4;;;6.8;;
61675;SDS011;47574;52.090;5.244;2023-11-19T10:56:54;35.0;;;7.8;;
61675;SDS011;47574;52.090;5.244;2023-11-19T11:00:12;36.71;;;8.0;;
61675;SDS011;47574;52.090;5.244;2023-11-19T11:01:54;35.31;;;7.5;;
61675;SDS011;47574;52.090;5.244;2023-11-19T11:03:35;39.9;;;8.1;;
61675;SDS011;47574;52.090;5.244;2023-11-19T11:05:16;37.0;;;7.1;;
61675;SDS011;47574;52.090;5.244;2023-11-19T11:08:31;37.81;;;7.6;;
61675;SDS011;47574;52.090;5.244;2023-11-19T11:10:12;33.5;;;6.8;;
61675;SDS011;47574;52.090;5.244;2023-11-19T11:11:49;37.31;;;7.6;;
61675;SDS011;47574;52.090;5.244;2023-11-19T11:15:03;35.81;;;7.4;;
61675;SDS011;47574;52.090;5.244;2023-11-19T11:16:42;39.5;;;8.4;;
61675;SDS011;47574;52.090;5.244;2023-11-19T11:18:20;37.6;;;7.4;;
61675;SDS011;47574;52.090;5.244;2023-11-19T11:19:56;33.6;;;7.7;;
61675;SDS011;47574;52.090;5.244;2023-11-19T11:23:19;35.81;;;7.6;;
61675;SDS011;47574;52.090;5.244;2023-11-19T11:25:27;35.5;;;7.6;;
61675;SDS011;47574;52.090;5.244;2023-11-19T11:27:21;34.21;;;7.5;;
61675;SDS011;47574;52.090;5.244;2023-11-19T11:29:20;35.9;;;7.4;;
61675;SDS011;47574;52.090;5.244;2023-11-19T11:31:08;31.8;;;6.9;;
61675;SDS011;47574;52.090;5.244;2023-11-19T11:33:00;32.3;;;6.5;;
61675;SDS011;47574;52.090;5.244;2023-11-19T11:34:53;32.21;;;7.0;;
61675;SDS011;47574;52.090;5.244;2023-11-19T11:36:45;34.0;;;7.3;;
61675;SDS011;47574;52.090;5.244;2023-11-19T11:38:42;35.9;;;7.6;;
61675;SDS011;47574;52.090;5.244;2023-11-19T11:42:30;34.0;;;7.2;;
61675;SDS011;47574;52.090;5.244;2023-11-19T11:44:10;38.71;;;7.9;;
61675;SDS011;47574;52.090;5.244;2023-11-19T11:45:46;37.0;;;7.1;;
61675;SDS011;47574;52.090;5.244;2023-11-19T11:47:23;39.4;;;7.3;;
61675;SDS011;47574;52.090;5.244;2023-11-19T11:50:49;39.9;;;8.0;;
61675;SDS011;47574;52.090;5.244;2023-11-19T11:52:28;32.9;;;6.6;;
61675;SDS011;47574;52.090;5.244;2023-11-19T11:54:05;33.6;;;7.3;;
61675;SDS011;47574;52.090;5.244;2023-11-19T11:56:03;33.6;;;7.3;;
61675;SDS011;47574;52.090;5.244;2023-11-19T11:57:40;33.9;;;6.2;;
61675;SDS011;47574;52.090;5.244;2023-11-19T12:00:56;34.1;;;6.1;;
61675;SDS011;47574;52.090;5.244;2023-11-19T12:02:33;31.6;;;6.4;;
61675;SDS011;47574;52.090;5.244;2023-11-19T12:04:09;34.71;;;7.5;;
61675;SDS011;47574;52.090;5.244;2023-11-19T12:05:46;31.0;;;6.7;;
61675;SDS011;47574;52.090;5.244;2023-11-19T12:09:01;30.0;;;6.6;;
61675;SDS011;47574;52.090;5.244;2023-11-19T12:10:43;28.7;;;6.2;;
61675;SDS011;47574;52.090;5.244;2023-11-19T12:12:21;30.8;;;6.5;;
61675;SDS011;47574;52.090;5.244;2023-11-19T12:15:54;27.1;;;5.2;;
61675;SDS011;47574;52.090;5.244;2023-11-19T12:17:46;34.4;;;7.3;;
61675;SDS011;47574;52.090;5.244;2023-11-19T12:19:24;32.8;;;6.3;;
61675;SDS011;47574;52.090;5.244;2023-11-19T12:21:01;31.7;;;5.6;;
61675;SDS011;47574;52.090;5.244;2023-11-19T12:22:39;27.7;;;6.2;;
61675;SDS011;47574;52.090;5.244;2023-11-19T12:25:55;28.3;;;6.2;;
61675;SDS011;47574;52.090;5.244;2023-11-19T12:27:31;25.8;;;5.4;;
61675;SDS011;47574;52.090;5.244;2023-11-19T12:29:08;25.9;;;5.7;;
61675;SDS011;47574;52.090;5.244;2023-11-19T12:32:21;28.4;;;5.9;;
61675;SDS011;47574;52.090;5.244;2023-11-19T12:33:57;27.3;;;6.5;;
61675;SDS011;47574;52.090;5.244;2023-11-19T12:35:33;29.3;;;6.3;;
61675;SDS011;47574;52.090;5.244;2023-11-19T12:37:15;24.8;;;4.91;;
61675;SDS011;47574;52.090;5.244;2023-11-19T12:40:30;31.4;;;6.1;;
61675;SDS011;47574;52.090;5.244;2023-11-19T12:42:06;29.3;;;5.9;;
61675;SDS011;47574;52.090;5.244;2023-11-19T12:43:42;30.7;;;5.8;;
61675;SDS011;47574;52.090;5.244;2023-11-19T12:46:59;24.0;;;5.4;;
61675;SDS011;47574;52.090;5.244;2023-11-19T12:48:36;32.9;;;6.0;;
61675;SDS011;47574;52.090;5.244;2023-11-19T12:50:14;31.2;;;6.4;;
61675;SDS011;47574;52.090;5.244;2023-11-19T12:51:50;31.5;;;6.7;;